createdAt,value
2022-10-03T00:02:00.188Z,1.48
2022-10-03T00:04:47.624Z,1.35
2022-10-03T00:08:01.869Z,1.50
2022-10-03T00:10:49.906Z,2.03
2022-10-03T00:13:26.799Z,1.95
2022-10-03T00:16:18.850Z,2.42
2022-10-03T00:19:23.380Z,1.60
2022-10-03T00:21:56.683Z,1.90
2022-10-03T00:24:59.549Z,1.25
2022-10-03T00:27:40.611Z,1.48
2022-10-03T00:30:16.581Z,1.50
2022-10-03T00:33:15.114Z,1.80
2022-10-03T00:35:59.107Z,1.63
2022-10-03T00:38:48.290Z,1.75
2022-10-03T00:41:49.593Z,2.20
2022-10-03T00:44:38.083Z,1.70
2022-10-03T00:47:41.868Z,1.40
2022-10-03T00:50:33.660Z,1.90
2022-10-03T00:53:13.117Z,1.75
2022-10-03T00:56:04.506Z,1.67
2022-10-03T00:58:40.347Z,1.50
2022-10-03T01:01:34.205Z,2.20
2022-10-03T01:04:21.101Z,1.73
2022-10-03T01:07:17.618Z,1.80
2022-10-03T01:10:22.307Z,2.17
2022-10-03T01:12:54.751Z,1.55
2022-10-03T01:18:00.355Z,1.48
2022-10-03T01:20:39.513Z,2.17
2022-10-03T01:23:31.107Z,2.03
2022-10-03T01:26:26.647Z,2.45
2022-10-03T01:29:29.706Z,1.80
2022-10-03T01:32:02.500Z,1.90
2022-10-03T01:34:42.435Z,1.92
2022-10-03T01:37:49.360Z,1.70
2022-10-03T01:40:51.625Z,1.88
2022-10-03T01:43:42.124Z,1.75
2022-10-03T01:46:15.372Z,2.60
2022-10-03T01:49:29.223Z,2.92
2022-10-03T01:52:20.255Z,2.60
2022-10-03T01:55:00.567Z,2.88
2022-10-03T01:57:42.295Z,2.60
2022-10-03T02:00:17.695Z,2.33
2022-10-03T02:03:10.091Z,2.17
2022-10-03T02:06:14.044Z,1.98
2022-10-03T02:11:10.602Z,2.50
2022-10-03T02:14:07.288Z,1.90
2022-10-03T02:16:46.451Z,1.63
2022-10-03T02:19:29.740Z,1.98
2022-10-03T02:21:58.954Z,1.98
2022-10-03T02:24:31.288Z,1.90
2022-10-03T02:27:27.509Z,2.50
2022-10-03T02:30:41.442Z,1.80
2022-10-03T02:33:41.053Z,2.00
2022-10-03T02:36:49.227Z,1.60
2022-10-03T02:39:31.608Z,1.70
2022-10-03T02:42:25.185Z,1.83
2022-10-03T02:44:57.904Z,2.00
2022-10-03T02:47:24.538Z,1.65
2022-10-03T02:50:23.079Z,1.83
2022-10-03T02:53:01.353Z,2.70
2022-10-03T02:55:49.352Z,1.42
2022-10-03T02:59:08.971Z,1.60
2022-10-03T03:01:47.025Z,1.98
2022-10-03T03:04:28.618Z,1.42
2022-10-03T03:07:13.920Z,1.77
2022-10-03T03:09:58.807Z,2.05
2022-10-03T03:13:04.408Z,2.35
2022-10-03T03:15:57.994Z,2.08
2022-10-03T03:19:00.247Z,1.70
2022-10-03T03:21:35.055Z,2.30
2022-10-03T03:24:38.594Z,2.25
2022-10-03T03:27:29.885Z,1.88
2022-10-03T03:30:05.887Z,1.70
2022-10-03T03:33:07.516Z,1.75
2022-10-03T03:35:53.875Z,2.30
2022-10-03T03:38:31.534Z,2.65
2022-10-03T03:41:14.195Z,2.08
2022-10-03T03:44:06.448Z,2.13
2022-10-03T03:46:39.000Z,2.10
2022-10-03T03:49:43.287Z,2.38
2022-10-03T03:52:32.211Z,3.17
2022-10-03T03:55:27.682Z,2.22
2022-10-03T03:58:05.674Z,2.17
2022-10-03T04:00:55.384Z,1.90
2022-10-03T04:03:32.707Z,2.60
2022-10-03T04:06:26.175Z,2.00
2022-10-03T04:09:15.643Z,2.38
2022-10-03T04:12:10.133Z,2.10
2022-10-03T04:15:02.766Z,2.30
2022-10-03T04:18:15.422Z,1.88
2022-10-03T04:21:01.718Z,2.08
2022-10-03T04:24:08.704Z,2.35
2022-10-03T04:27:22.486Z,2.30
2022-10-03T04:30:10.366Z,2.30
2022-10-03T04:32:58.502Z,2.97
2022-10-03T04:35:45.509Z,2.25
2022-10-03T04:38:16.041Z,2.30
2022-10-03T04:41:11.556Z,2.38
2022-10-03T04:43:52.408Z,2.42
2022-10-03T04:46:43.318Z,1.80
2022-10-03T04:49:28.986Z,2.75
2022-10-03T04:52:18.337Z,2.55
2022-10-03T04:55:19.671Z,2.13
2022-10-03T04:58:23.508Z,3.35
2022-10-03T05:01:20.659Z,2.85
2022-10-03T05:03:54.329Z,2.10
2022-10-03T05:06:53.603Z,2.40
2022-10-03T05:09:23.629Z,2.70
2022-10-03T05:12:06.231Z,2.58
2022-10-03T05:14:49.770Z,2.63
2022-10-03T05:17:24.675Z,2.60
2022-10-03T05:20:13.786Z,3.58
2022-10-03T05:23:25.781Z,2.08
2022-10-03T05:26:43.092Z,2.40
2022-10-03T05:29:03.904Z,2.65
2022-10-03T05:31:49.199Z,2.42
2022-10-03T05:34:41.420Z,2.38
2022-10-03T05:37:29.895Z,2.45
2022-10-03T05:40:00.079Z,2.58
2022-10-03T05:42:56.065Z,2.72
2022-10-03T05:45:32.286Z,2.60
2022-10-03T05:48:13.980Z,2.88
2022-10-03T05:51:13.430Z,2.83
2022-10-03T05:54:25.049Z,2.80
2022-10-03T05:57:16.789Z,2.70
2022-10-03T06:00:01.241Z,2.53
2022-10-03T06:03:01.398Z,2.30
2022-10-03T06:05:56.638Z,2.88
2022-10-03T06:08:40.900Z,2.67
2022-10-03T06:11:07.495Z,2.67
2022-10-03T06:14:09.218Z,2.80
2022-10-03T06:16:48.539Z,3.00
2022-10-03T06:19:49.753Z,2.35
2022-10-03T06:22:51.117Z,2.75
2022-10-03T06:25:39.309Z,2.25
2022-10-03T06:28:24.907Z,2.63
2022-10-03T06:31:09.710Z,2.53
2022-10-03T06:33:45.458Z,2.72
2022-10-03T06:36:40.127Z,3.00
2022-10-03T06:39:34.363Z,3.53
2022-10-03T06:42:38.799Z,3.83
2022-10-03T06:45:20.947Z,2.42
2022-10-03T06:48:09.980Z,3.08
2022-10-03T06:50:41.107Z,3.08
2022-10-03T06:53:26.345Z,2.88
2022-10-03T06:56:27.900Z,2.47
2022-10-03T06:59:06.123Z,2.72
2022-10-03T07:02:16.319Z,2.97
2022-10-03T07:07:39.207Z,2.88
2022-10-03T07:10:26.668Z,3.00
2022-10-03T07:13:02.635Z,2.80
2022-10-03T07:16:21.055Z,3.63
2022-10-03T07:19:01.632Z,2.58
2022-10-03T07:21:28.377Z,3.70
2022-10-03T07:24:05.187Z,2.88
2022-10-03T07:26:31.770Z,2.67
2022-10-03T07:29:35.643Z,2.90
2022-10-03T07:35:54.606Z,3.28
2022-10-03T07:39:02.849Z,3.75
2022-10-03T07:41:41.743Z,3.35
2022-10-03T07:44:45.833Z,3.53
2022-10-03T07:47:39.873Z,3.55
2022-10-03T07:50:31.145Z,3.17
2022-10-03T07:55:39.078Z,3.20
2022-10-03T07:58:26.174Z,2.70
2022-10-03T08:00:58.563Z,2.90
2022-10-03T08:04:06.026Z,2.65
2022-10-03T08:06:45.397Z,3.22
2022-10-03T08:09:46.815Z,2.47
2022-10-03T08:12:40.391Z,2.85
2022-10-03T08:15:11.451Z,3.20
2022-10-03T08:17:38.091Z,2.90
2022-10-03T08:20:16.916Z,3.40
2022-10-03T08:23:08.544Z,2.72
2022-10-03T08:25:53.628Z,2.83
2022-10-03T08:28:34.121Z,2.45
2022-10-03T08:31:25.364Z,3.05
2022-10-03T08:34:19.833Z,3.25
2022-10-03T08:37:26.280Z,2.50
2022-10-03T08:40:40.218Z,2.30
2022-10-03T08:43:15.929Z,2.60
2022-10-03T08:46:25.492Z,2.75
2022-10-03T08:49:18.415Z,2.63
2022-10-03T08:51:53.155Z,3.20
2022-10-03T08:54:22.759Z,2.58
2022-10-03T08:57:06.187Z,2.95
2022-10-03T09:00:10.104Z,2.53
2022-10-03T09:03:13.704Z,2.28
2022-10-03T09:05:59.786Z,4.25
2022-10-03T09:08:29.111Z,2.50
2022-10-03T09:11:01.544Z,2.33
2022-10-03T09:13:51.180Z,2.60
2022-10-03T09:16:35.326Z,2.53
2022-10-03T09:19:16.753Z,2.40
2022-10-03T09:22:31.827Z,2.33
2022-10-03T09:25:20.104Z,2.53
2022-10-03T09:27:55.941Z,2.65
2022-10-03T09:30:43.953Z,2.60
2022-10-03T09:33:29.375Z,2.53
2022-10-03T09:36:53.766Z,2.30
2022-10-03T09:39:41.806Z,2.35
2022-10-03T09:42:20.276Z,2.40
2022-10-03T09:45:24.376Z,2.40
2022-10-03T09:48:32.720Z,1.83
2022-10-03T09:51:09.305Z,2.45
2022-10-03T09:53:48.776Z,2.35
2022-10-03T09:56:39.711Z,2.67
2022-10-03T09:59:43.732Z,1.90
2022-10-03T10:02:32.020Z,2.25
2022-10-03T10:05:25.693Z,2.03
2022-10-03T10:08:28.491Z,1.98
2022-10-03T10:11:01.331Z,1.98
2022-10-03T10:13:36.248Z,1.58
2022-10-03T10:16:50.127Z,1.67
2022-10-03T10:19:44.337Z,2.03
2022-10-03T10:22:32.164Z,1.70
2022-10-03T10:25:01.971Z,2.05
2022-10-03T10:28:26.076Z,1.92
2022-10-03T10:31:22.628Z,1.85
2022-10-03T10:34:10.880Z,1.77
2022-10-03T10:36:59.309Z,2.17
2022-10-03T10:39:46.899Z,1.92
2022-10-03T10:42:45.151Z,1.88
2022-10-03T10:45:39.345Z,1.80
2022-10-03T10:48:16.875Z,1.67
2022-10-03T10:50:52.591Z,2.40
2022-10-03T10:53:50.201Z,1.38
2022-10-03T10:56:36.868Z,1.85
2022-10-03T10:59:53.975Z,1.80
2022-10-03T11:02:35.924Z,1.08
2022-10-03T11:05:36.912Z,1.75
2022-10-03T11:08:34.829Z,1.40
2022-10-03T11:11:29.030Z,1.40
2022-10-03T11:14:18.796Z,1.10
2022-10-03T11:17:38.999Z,1.70
2022-10-03T11:20:32.632Z,1.30
2022-10-03T11:23:34.023Z,2.47
2022-10-03T11:26:22.393Z,0.98
2022-10-03T11:29:27.306Z,1.05
2022-10-03T11:32:32.360Z,1.10
2022-10-03T11:35:29.101Z,0.88
2022-10-03T11:38:04.943Z,0.60
2022-10-03T11:40:42.000Z,0.60
2022-10-03T11:43:53.003Z,0.60
2022-10-03T11:46:41.157Z,0.60
2022-10-03T11:49:28.432Z,1.73
2022-10-03T11:52:27.861Z,1.75
2022-10-03T11:55:25.474Z,0.60
2022-10-03T11:58:03.109Z,0.80
2022-10-03T12:00:34.548Z,1.00
2022-10-03T12:03:17.385Z,1.00
2022-10-03T12:05:49.946Z,0.80
2022-10-03T12:08:51.026Z,0.80
2022-10-03T12:11:38.645Z,1.98
2022-10-03T12:14:31.040Z,3.58
2022-10-03T12:17:17.858Z,1.63
2022-10-03T12:20:32.184Z,1.15
2022-10-03T12:22:58.813Z,1.58
2022-10-03T12:25:30.173Z,1.40
2022-10-03T12:28:42.262Z,1.52
2022-10-03T12:31:31.088Z,1.10
2022-10-03T12:34:03.548Z,0.77
2022-10-03T12:36:43.524Z,1.70
2022-10-03T12:39:37.870Z,1.40
2022-10-03T12:42:05.116Z,1.80
2022-10-03T12:44:34.583Z,1.23
2022-10-03T12:47:43.852Z,1.30
2022-10-03T12:50:27.999Z,1.10
2022-10-03T12:53:23.898Z,1.15
2022-10-03T12:56:01.888Z,1.10
2022-10-03T12:59:04.702Z,1.27
2022-10-03T13:02:16.434Z,1.13
2022-10-03T13:05:11.870Z,1.23
2022-10-03T13:08:03.328Z,1.30
2022-10-03T13:10:43.548Z,2.22
2022-10-03T13:13:23.033Z,1.63
2022-10-03T13:16:05.924Z,1.58
2022-10-03T13:18:48.010Z,1.50
2022-10-03T13:21:46.009Z,1.60
2022-10-03T13:24:40.027Z,1.65
2022-10-03T13:27:32.289Z,1.70
2022-10-03T13:30:06.387Z,1.05
2022-10-03T13:32:37.787Z,1.83
2022-10-03T13:35:45.105Z,1.58
2022-10-03T13:38:31.813Z,0.90
2022-10-03T13:41:07.417Z,1.60
2022-10-03T13:43:38.529Z,2.25
2022-10-03T13:46:26.816Z,2.00
2022-10-03T13:49:02.174Z,1.38
2022-10-03T13:51:39.831Z,1.25
2022-10-03T13:54:22.035Z,1.10
2022-10-03T13:56:59.730Z,1.10
2022-10-03T13:59:50.880Z,0.90
2022-10-03T14:02:44.842Z,1.00
2022-10-03T14:05:37.208Z,1.20
2022-10-03T14:08:30.715Z,1.02
2022-10-03T14:11:43.673Z,1.60
2022-10-03T14:14:13.951Z,0.93
2022-10-03T14:16:42.747Z,1.00
2022-10-03T14:19:39.189Z,1.20
2022-10-03T14:22:11.262Z,1.10
2022-10-03T14:25:03.639Z,1.33
2022-10-03T14:27:52.780Z,1.35
2022-10-03T14:31:05.104Z,1.63
2022-10-03T14:33:56.444Z,1.40
2022-10-03T14:36:47.297Z,1.15
2022-10-03T14:39:36.357Z,1.77
2022-10-03T14:42:18.979Z,1.27
2022-10-03T14:44:54.309Z,1.15
2022-10-03T14:47:22.140Z,1.27
2022-10-03T14:49:59.175Z,1.02
2022-10-03T14:52:44.444Z,1.02
2022-10-03T14:55:18.953Z,1.17
2022-10-03T14:58:09.691Z,0.90
2022-10-03T15:00:43.657Z,1.40
2022-10-03T15:03:38.082Z,1.00
2022-10-03T15:06:11.030Z,1.05
2022-10-03T15:08:53.994Z,1.00
2022-10-03T15:11:27.331Z,1.30
2022-10-03T15:14:02.526Z,1.20
2022-10-03T15:16:34.520Z,1.27
2022-10-03T15:19:17.776Z,1.02
2022-10-03T15:21:47.438Z,1.20
2022-10-03T15:24:28.452Z,0.93
2022-10-03T15:27:01.617Z,1.45
2022-10-03T15:29:30.884Z,1.45
2022-10-03T15:31:58.736Z,1.20
2022-10-03T15:34:33.412Z,1.42
2022-10-03T15:37:10.899Z,1.00
2022-10-03T15:39:43.964Z,0.98
2022-10-03T15:42:10.635Z,1.35
2022-10-03T15:45:03.825Z,1.23
2022-10-03T15:47:34.809Z,1.42
2022-10-03T15:50:13.238Z,1.00
2022-10-03T15:53:12.353Z,1.00
2022-10-03T15:55:54.584Z,1.40
2022-10-03T15:58:36.196Z,1.13
2022-10-03T16:01:20.724Z,1.23
2022-10-03T16:03:50.316Z,1.20
2022-10-03T16:06:39.791Z,1.20
2022-10-03T16:09:17.777Z,2.03
2022-10-03T16:11:58.620Z,1.80
2022-10-03T16:14:35.744Z,1.75
2022-10-03T16:17:15.801Z,2.70
2022-10-03T16:20:05.854Z,2.50
2022-10-03T16:22:44.794Z,2.50
2022-10-03T16:25:48.358Z,2.03
2022-10-03T16:28:20.220Z,1.90
2022-10-03T16:30:52.481Z,1.60
2022-10-03T16:33:27.486Z,1.92
2022-10-03T16:35:58.149Z,3.08
2022-10-03T16:38:27.603Z,2.58
2022-10-03T16:41:01.953Z,3.42
2022-10-03T16:43:32.059Z,3.50
2022-10-03T16:46:16.358Z,3.05
2022-10-03T16:49:02.974Z,3.35
2022-10-03T16:51:46.435Z,2.95
2022-10-03T16:54:18.895Z,3.70
2022-10-03T16:56:54.871Z,2.80
2022-10-03T16:59:23.860Z,3.05
2022-10-03T17:01:57.388Z,4.00
2022-10-03T17:04:30.358Z,2.50
2022-10-03T17:07:06.398Z,2.70
2022-10-03T17:09:48.457Z,2.88
2022-10-03T17:12:57.058Z,4.03
2022-10-03T17:15:30.933Z,4.18
2022-10-03T17:18:26.819Z,3.75
2022-10-03T17:21:08.238Z,3.08
2022-10-03T17:23:49.266Z,2.63
2022-10-03T17:26:39.309Z,1.98
2022-10-03T17:29:21.144Z,2.35
2022-10-03T17:32:02.361Z,2.08
2022-10-03T17:35:12.524Z,2.65
2022-10-03T17:40:36.508Z,1.98
2022-10-03T17:45:54.226Z,1.30
2022-10-03T17:48:43.407Z,1.85
2022-10-03T17:51:35.054Z,1.70
2022-10-03T17:54:06.070Z,1.75
2022-10-03T17:56:34.927Z,1.75
2022-10-03T17:59:12.825Z,1.52
2022-10-03T18:01:51.296Z,1.60
2022-10-03T18:04:39.050Z,1.70
2022-10-03T18:07:25.027Z,2.28
2022-10-03T18:09:54.653Z,1.98
2022-10-03T18:12:35.008Z,1.95
2022-10-03T18:15:27.752Z,4.43
2022-10-03T18:18:19.191Z,2.80
2022-10-03T18:20:58.700Z,2.13
2022-10-03T18:23:56.390Z,2.47
2022-10-03T18:26:36.938Z,2.15
2022-10-03T18:29:19.094Z,2.13
2022-10-03T18:31:57.407Z,2.50
2022-10-03T18:34:34.499Z,2.45
2022-10-03T18:37:16.732Z,3.00
2022-10-03T18:39:44.777Z,2.80
2022-10-03T18:42:12.052Z,2.95
2022-10-03T18:44:44.944Z,3.35
2022-10-03T18:47:20.543Z,3.90
2022-10-03T18:50:19.271Z,4.22
2022-10-03T18:52:53.543Z,4.18
2022-10-03T18:55:37.694Z,3.88
2022-10-03T18:58:05.854Z,4.80
2022-10-03T19:00:42.725Z,4.63
2022-10-03T19:03:16.956Z,4.53
2022-10-03T19:06:03.332Z,3.97
2022-10-03T19:08:43.831Z,4.00
2022-10-03T19:11:14.103Z,4.50
2022-10-03T19:13:48.457Z,4.72
2022-10-03T19:16:35.399Z,4.95
2022-10-03T19:21:41.213Z,5.15
2022-10-03T19:24:34.435Z,5.20
2022-10-03T19:27:14.686Z,6.00
2022-10-03T19:29:47.959Z,5.70
2022-10-03T19:32:31.272Z,5.55
2022-10-03T19:35:04.919Z,6.00
2022-10-03T19:37:45.294Z,6.95
2022-10-03T19:40:34.711Z,8.38
2022-10-03T19:43:24.159Z,7.25
2022-10-03T19:46:01.067Z,6.70
2022-10-03T19:48:32.274Z,7.43
2022-10-03T19:51:10.411Z,6.97
2022-10-03T19:53:42.632Z,7.40
2022-10-03T19:56:15.359Z,7.18
2022-10-03T19:58:46.252Z,7.95
2022-10-03T20:01:13.703Z,7.22
2022-10-03T20:03:52.395Z,7.13
2022-10-03T20:06:22.609Z,6.57
2022-10-03T20:09:02.441Z,6.20
2022-10-03T20:11:49.313Z,6.40
2022-10-03T20:14:27.053Z,5.70
2022-10-03T20:17:04.494Z,7.18
2022-10-03T20:19:56.572Z,5.40
2022-10-03T20:22:33.566Z,6.53
2022-10-03T20:25:01.015Z,6.20
2022-10-03T20:27:27.722Z,6.57
2022-10-03T20:30:23.433Z,7.82
2022-10-03T20:32:51.722Z,7.10
2022-10-03T20:35:23.659Z,7.32
2022-10-03T20:37:50.259Z,7.80
2022-10-03T20:40:42.253Z,5.68
2022-10-03T20:43:41.339Z,7.15
2022-10-03T20:46:26.287Z,6.85
2022-10-03T20:49:11.504Z,6.30
2022-10-03T20:51:51.837Z,6.35
2022-10-03T20:54:21.015Z,5.75
2022-10-03T20:57:14.512Z,5.75
2022-10-03T21:00:11.453Z,5.70
2022-10-03T21:02:52.948Z,5.72
2022-10-03T21:05:36.263Z,5.43
2022-10-03T21:08:20.028Z,5.68
2022-10-03T21:10:58.401Z,6.47
2022-10-03T21:13:33.033Z,5.38
2022-10-03T21:16:02.817Z,6.13
2022-10-03T21:18:40.082Z,5.43
2022-10-03T21:21:18.910Z,5.07
2022-10-03T21:26:25.875Z,5.22
2022-10-03T21:29:24.492Z,5.13
2022-10-03T21:32:20.235Z,4.78
2022-10-03T21:35:02.435Z,4.93
2022-10-03T21:37:42.559Z,5.18
2022-10-03T21:40:25.048Z,4.97
2022-10-03T21:43:20.491Z,5.30
2022-10-03T21:46:01.601Z,5.00
2022-10-03T21:48:41.819Z,4.80
2022-10-03T21:51:19.605Z,5.50
2022-10-03T21:54:03.752Z,4.90
2022-10-03T21:56:46.267Z,4.97
2022-10-03T21:59:41.315Z,4.35
2022-10-03T22:02:20.953Z,4.47
2022-10-03T22:04:49.822Z,5.15
2022-10-03T22:07:38.113Z,5.03
2022-10-03T22:10:21.841Z,4.75
2022-10-03T22:12:52.428Z,4.32
2022-10-03T22:15:27.964Z,4.28
2022-10-03T22:18:05.275Z,3.92
2022-10-03T22:20:33.824Z,4.22
2022-10-03T22:23:09.358Z,3.53
2022-10-03T22:25:54.348Z,4.07
2022-10-03T22:28:45.738Z,4.45
2022-10-03T22:31:34.416Z,4.78
2022-10-03T22:34:28.859Z,3.90
2022-10-03T22:36:55.965Z,6.25
2022-10-03T22:39:23.016Z,5.72
2022-10-03T22:41:54.386Z,5.25
2022-10-03T22:44:25.541Z,4.78
2022-10-03T22:46:56.494Z,5.35
2022-10-03T22:49:33.105Z,4.90
2022-10-03T22:52:03.653Z,5.75
2022-10-03T22:54:35.136Z,6.85
2022-10-03T22:57:07.121Z,4.85
2022-10-03T22:59:42.333Z,5.45
2022-10-03T23:02:10.063Z,5.25
2022-10-03T23:04:57.378Z,5.20
2022-10-03T23:08:18.060Z,5.10
2022-10-03T23:11:01.571Z,4.55
2022-10-03T23:13:43.647Z,4.43
2022-10-03T23:16:47.436Z,4.07
2022-10-03T23:19:38.639Z,4.60
2022-10-03T23:22:12.393Z,4.07
2022-10-03T23:24:44.516Z,4.32
2022-10-03T23:27:29.445Z,3.85
2022-10-03T23:30:16.934Z,4.35
2022-10-03T23:32:46.578Z,3.88
2022-10-03T23:35:30.763Z,4.65
2022-10-03T23:38:01.158Z,3.15
2022-10-03T23:40:29.525Z,3.97
2022-10-03T23:43:37.076Z,3.45
2022-10-03T23:46:10.404Z,3.90
2022-10-03T23:48:46.420Z,3.97
2022-10-03T23:51:17.799Z,4.03
2022-10-03T23:53:52.817Z,3.60
2022-10-03T23:56:22.462Z,4.03
2022-10-03T23:59:14.460Z,3.58
